Time;durP1;ratioP1;P1;durP2;ratioP2;P2;SDS_P1;SDS_P2;PMS_P1;PMS_P2;Temp;Humidity;BMP_temperature;BMP_pressure;BME280_temperature;BME280_humidity;BME280_pressure;Samples;Min_cycle;Max_cycle;Signal;HPM_P1;HPM_P2
2021/11/18 00:00:39;;;;;;;10.23;6.40;;;;;;;2.52;81.03;101114.06;5051923;28;20296;-72
2021/11/18 00:03:06;;;;;;;12.30;6.50;;;;;;;2.31;81.09;101080.38;5051852;28;20279;-72
2021/11/18 00:05:32;;;;;;;10.63;7.57;;;;;;;2.06;81.53;101033.91;5052154;28;20041;-70
2021/11/18 00:08:00;;;;;;;8.70;6.43;;;;;;;2.39;81.59;101079.91;5052682;28;20264;-72
2021/11/18 00:10:36;;;;;;;6.60;5.13;;;;;;;2.33;81.71;101059.28;5052074;28;20270;-71
2021/11/18 00:13:05;;;;;;;6.83;5.10;;;;;;;2.53;81.63;101084.22;5051970;28;20268;-71
2021/11/18 00:15:32;;;;;;;6.13;5.25;;;;;;;2.51;81.81;101068.53;5051736;28;20278;-72
2021/11/18 00:18:00;;;;;;;6.90;4.97;;;;;;;2.42;81.21;101069.16;5055534;28;20036;-71
2021/11/18 00:20:29;;;;;;;9.57;5.72;;;;;;;2.42;81.30;101071.81;5058690;28;20291;-71
2021/11/18 00:22:55;;;;;;;;;;;;;;;2.46;81.43;101078.53;5056548;28;20474;-71
2021/11/18 00:25:21;;;;;;;5.97;5.37;;;;;;;2.40;81.32;101069.28;5056150;28;20028;-71
2021/11/18 00:27:47;;;;;;;5.80;4.57;;;;;;;2.34;81.73;101055.72;5055604;28;20480;-73
2021/11/18 00:30:13;;;;;;;5.97;5.07;;;;;;;2.39;81.99;101066.75;5055642;28;20443;-70
2021/11/18 00:32:40;;;;;;;6.97;5.43;;;;;;;2.46;82.14;101073.28;5054418;28;20044;-71
2021/11/18 00:35:07;;;;;;;8.33;6.47;;;;;;;2.50;81.29;101064.22;5054415;28;20275;-71
2021/11/18 00:37:34;;;;;;;5.03;4.23;;;;;;;2.48;81.48;101053.81;5055659;28;20268;-71
2021/11/18 00:40:00;;;;;;;6.93;5.03;;;;;;;2.44;81.65;101047.09;5055197;28;20643;-71
2021/11/18 00:42:25;;;;;;;6.97;5.20;;;;;;;2.51;81.04;101046.66;5055481;28;20267;-70
2021/11/18 00:44:54;;;;;;;9.50;6.67;;;;;;;2.58;81.11;101061.91;5058031;28;20484;-70
2021/11/18 00:47:19;;;;;;;;;;;;;;;2.60;81.00;101054.78;5055937;28;20517;-70
2021/11/18 00:49:45;;;;;;;8.73;4.83;;;;;;;2.52;81.68;101061.50;5055103;28;19923;-71
2021/11/18 00:52:10;;;;;;;6.83;4.97;;;;;;;2.54;81.68;101055.19;5055329;28;20041;-70
2021/11/18 00:54:36;;;;;;;8.37;5.00;;;;;;;2.43;81.47;101034.06;5055593;28;20067;-71
2021/11/18 00:57:01;;;;;;;5.77;4.50;;;;;;;2.46;81.61;101031.22;5053863;28;20464;-72
2021/11/18 00:59:30;;;;;;;5.37;4.60;;;;;;;2.48;81.51;101029.31;5054966;28;20041;-71
2021/11/18 01:02:21;;;;;;;5.50;4.93;;;;;;;2.51;81.88;101028.25;5058329;28;20040;-71
2021/11/18 01:04:47;;;;;;;6.93;4.97;;;;;;;2.30;81.96;100972.72;5055055;28;20801;-71
2021/11/18 01:07:13;;;;;;;8.30;5.60;;;;;;;2.51;81.83;101018.59;5053773;28;20255;-70
2021/11/18 01:09:39;;;;;;;6.50;5.00;;;;;;;2.51;80.96;101008.06;5053377;28;20032;-70
2021/11/18 01:12:06;;;;;;;6.07;5.13;;;;;;;2.47;81.78;101011.88;5054943;28;20040;-71
2021/11/18 01:14:33;;;;;;;6.00;4.40;;;;;;;2.42;81.72;100998.19;5054794;28;20619;-71
2021/11/18 01:16:59;;;;;;;5.47;4.23;;;;;;;2.50;81.91;100998.50;5053445;28;20825;-71
2021/11/18 01:19:25;;;;;;;5.97;4.70;;;;;;;2.48;81.88;100997.78;5054750;28;20303;-72
2021/11/18 01:21:51;;;;;;;5.93;4.90;;;;;;;2.53;82.21;101005.34;5055096;28;20495;-69
2021/11/18 01:24:18;;;;;;;7.10;5.43;;;;;;;2.50;81.47;100982.72;5054499;28;20670;-70
2021/11/18 01:26:44;;;;;;;7.13;4.63;;;;;;;2.22;81.72;100927.75;5054494;28;20287;-70
2021/11/18 01:29:09;;;;;;;5.47;4.30;;;;;;;2.31;81.54;100959.47;5052860;28;20267;-70
2021/11/18 01:31:35;;;;;;;7.47;5.73;;;;;;;2.47;81.96;100967.19;5053448;28;20037;-69
2021/11/18 01:34:01;;;;;;;6.40;5.70;;;;;;;2.42;82.11;100956.16;5054759;28;20219;-73
2021/11/18 01:36:28;;;;;;;6.10;5.27;;;;;;;2.42;82.01;100962.25;5054596;28;20825;-70
2021/11/18 01:38:53;;;;;;;5.40;4.80;;;;;;;2.40;82.00;100947.53;5054318;28;20464;-72
2021/11/18 01:41:25;;;;;;;5.80;4.53;;;;;;;2.45;82.50;100955.94;5054333;28;20295;-71
2021/11/18 01:43:55;;;;;;;6.07;5.10;;;;;;;2.37;82.40;100942.47;5054642;28;20037;-70
2021/11/18 01:46:35;;;;;;;5.80;4.73;;;;;;;2.34;81.89;100927.75;5054640;28;20314;-69
2021/11/18 01:49:05;;;;;;;4.93;4.43;;;;;;;2.40;82.37;100942.25;5054347;28;20263;-69
2021/11/18 01:51:35;;;;;;;6.53;5.33;;;;;;;2.40;82.08;100921.25;5054299;28;20346;-71
2021/11/18 01:54:02;;;;;;;6.03;4.80;;;;;;;2.26;81.72;100895.91;5054381;28;20274;-72
2021/11/18 01:56:31;;;;;;;7.10;5.37;;;;;;;2.45;82.21;100913.88;5054194;28;20275;-70
2021/11/18 01:59:06;;;;;;;5.80;5.05;;;;;;;2.48;82.00;100918.91;5053972;28;20272;-71
2021/11/18 02:01:32;;;;;;;7.10;5.43;;;;;;;2.53;82.29;100916.78;5053886;28;20416;-70
2021/11/18 02:03:58;;;;;;;6.07;5.40;;;;;;;2.52;81.77;100909.84;5053663;28;20292;-70
2021/11/18 02:06:23;;;;;;;5.90;4.50;;;;;;;2.56;81.86;100906.06;5053894;28;20260;-71
2021/11/18 02:08:49;;;;;;;6.17;4.03;;;;;;;2.52;81.26;100899.34;5054112;28;20111;-70
2021/11/18 02:11:32;;;;;;;5.73;4.80;;;;;;;2.59;81.48;100895.31;5054055;28;20029;-70
2021/11/18 02:13:59;;;;;;;5.77;4.60;;;;;;;2.55;80.66;100878.09;5054065;28;20033;-69
2021/11/18 02:16:25;;;;;;;6.87;4.93;;;;;;;2.12;81.21;100806.69;5053068;28;20313;-69
2021/11/18 02:18:51;;;;;;;6.03;4.77;;;;;;;2.47;81.53;100877.78;5053962;28;20685;-70
2021/11/18 02:21:18;;;;;;;5.83;5.20;;;;;;;2.43;81.38;100876.34;5053658;28;20305;-70
2021/11/18 02:23:45;;;;;;;5.73;5.13;;;;;;;2.46;81.46;100879.59;5053813;28;20037;-70
2021/11/18 02:26:11;;;;;;;6.23;5.03;;;;;;;2.50;81.82;100877.56;5053436;28;20672;-71
2021/11/18 02:28:40;;;;;;;6.13;4.40;;;;;;;2.47;81.37;100873.38;5053610;28;20255;-71
2021/11/18 02:31:22;;;;;;;5.83;4.27;;;;;;;2.48;81.00;100868.97;5053106;28;20040;-70
2021/11/18 02:33:49;;;;;;;5.03;3.90;;;;;;;2.07;80.99;100793.88;5055574;28;20259;-70
2021/11/18 02:36:15;;;;;;;6.63;5.27;;;;;;;2.51;81.25;100860.00;5052372;28;20283;-71
2021/11/18 02:38:41;;;;;;;6.30;4.60;;;;;;;2.57;81.24;100870.94;5053501;28;20271;-71
2021/11/18 02:41:10;;;;;;;6.13;5.33;;;;;;;2.55;80.90;100869.34;5051081;28;20066;-72
2021/11/18 02:43:36;;;;;;;6.63;5.68;;;;;;;2.42;81.07;100862.34;5053225;28;20275;-69
2021/11/18 02:46:03;;;;;;;5.27;4.37;;;;;;;2.40;81.42;100852.91;5052107;28;20037;-71
2021/11/18 02:48:28;;;;;;;5.40;4.47;;;;;;;2.37;81.81;100842.59;5053317;28;20267;-70
2021/11/18 02:51:04;;;;;;;5.70;5.10;;;;;;;2.37;81.68;100840.81;5053318;28;20255;-70
2021/11/18 02:53:32;;;;;;;6.97;5.93;;;;;;;2.36;81.85;100846.19;5053069;28;20029;-71
2021/11/18 02:55:57;;;;;;;5.83;5.00;;;;;;;2.37;82.26;100839.97;5052953;28;20275;-73
2021/11/18 02:58:24;;;;;;;4.93;4.30;;;;;;;2.31;81.84;100827.25;5052891;28;20271;-70
2021/11/18 03:00:55;;;;;;;6.20;5.60;;;;;;;2.32;82.42;100823.69;5052644;28;20463;-72
2021/11/18 03:03:24;;;;;;;6.13;4.80;;;;;;;2.31;82.87;100827.25;5052877;28;20309;-70
2021/11/18 03:05:51;;;;;;;6.30;4.40;;;;;;;2.15;82.63;100812.56;5052673;28;20267;-70
2021/11/18 03:08:18;;;;;;;6.67;5.13;;;;;;;2.31;82.65;100821.97;5052691;28;20044;-71
2021/11/18 03:10:44;;;;;;;7.77;5.30;;;;;;;2.34;83.13;100817.38;5052537;28;20295;-70
2021/11/18 03:13:10;;;;;;;6.97;5.17;;;;;;;2.29;83.33;100803.69;5052389;28;20267;-70
2021/11/18 03:15:35;;;;;;;7.00;4.97;;;;;;;2.23;82.73;100790.16;5052422;28;20278;-71
2021/11/18 03:18:01;;;;;;;6.70;5.07;;;;;;;2.04;83.09;100765.22;5052486;28;20037;-72
2021/11/18 03:20:30;;;;;;;7.07;4.37;;;;;;;2.26;83.45;100796.03;5052467;28;20155;-72
2021/11/18 03:22:56;;;;;;;6.88;4.80;;;;;;;2.12;83.32;100781.25;5052222;28;20286;-71
2021/11/18 03:25:26;;;;;;;7.93;5.30;;;;;;;2.14;83.49;100776.72;5052111;28;20032;-70
2021/11/18 03:27:52;;;;;;;6.87;4.97;;;;;;;2.14;83.29;100774.09;5051968;28;20322;-71
2021/11/18 03:30:22;;;;;;;8.30;5.53;;;;;;;2.18;83.62;100790.50;5034292;28;20796;-70
2021/11/18 03:32:49;;;;;;;6.37;4.57;;;;;;;2.21;83.55;100786.81;5051858;28;20037;-72
2021/11/18 03:35:16;;;;;;;5.33;4.40;;;;;;;2.19;83.29;100773.78;5052030;28;20279;-71
2021/11/18 03:37:42;;;;;;;6.87;5.23;;;;;;;2.27;83.44;100781.09;5051950;28;20691;-72
2021/11/18 03:40:08;;;;;;;6.30;4.53;;;;;;;2.17;83.75;100758.13;5050699;28;20323;-71
2021/11/18 03:42:33;;;;;;;8.17;5.43;;;;;;;2.18;83.05;100761.59;5050868;28;20102;-70
2021/11/18 03:44:59;;;;;;;7.97;5.37;;;;;;;2.23;83.74;100769.13;5052046;28;20067;-71
2021/11/18 03:47:25;;;;;;;7.97;6.40;;;;;;;2.17;83.25;100739.72;5051959;28;20037;-70
2021/11/18 03:49:50;;;;;;;10.63;6.97;;;;;;;2.32;83.29;100760.63;5051837;28;20040;-72
2021/11/18 03:52:17;;;;;;;7.13;5.00;;;;;;;2.28;83.02;100753.88;5051273;28;20111;-69
2021/11/18 03:54:45;;;;;;;8.57;5.30;;;;;;;2.19;83.29;100734.38;5051912;28;20067;-71
2021/11/18 03:57:11;;;;;;;6.73;5.47;;;;;;;2.03;83.25;100700.47;5051773;28;20638;-72
2021/11/18 03:59:42;;;;;;;6.50;5.30;;;;;;;2.24;83.13;100736.66;5050293;28;20296;-70
2021/11/18 04:02:11;;;;;;;8.77;6.10;;;;;;;2.30;83.20;100736.22;5051660;28;20103;-69
2021/11/18 04:04:43;;;;;;;7.00;6.03;;;;;;;2.36;82.90;100735.78;5051602;28;20404;-70
2021/11/18 04:07:10;;;;;;;7.93;5.40;;;;;;;2.40;82.42;100734.63;5052123;28;20771;-67
2021/11/18 04:09:36;;;;;;;5.63;4.93;;;;;;;2.35;82.24;100726.25;5051978;28;20279;-70
2021/11/18 04:12:02;;;;;;;8.53;5.40;;;;;;;2.27;82.34;100710.16;5051798;28;20417;-70
2021/11/18 04:14:30;;;;;;;8.77;5.80;;;;;;;2.27;82.57;100699.66;5051570;28;20291;-71
2021/11/18 04:16:56;;;;;;;6.20;5.40;;;;;;;2.17;82.29;100675.84;5051592;28;20333;-67
2021/11/18 04:19:22;;;;;;;7.03;5.73;;;;;;;2.28;82.00;100702.16;5051442;28;20299;-72
2021/11/18 04:21:49;;;;;;;6.63;5.40;;;;;;;2.33;82.34;100704.47;5051607;28;20310;-70
2021/11/18 04:24:19;;;;;;;6.40;5.50;;;;;;;2.24;81.85;100684.09;5052001;28;20267;-72
2021/11/18 04:26:46;;;;;;;7.63;5.50;;;;;;;2.33;81.71;100705.31;5050473;28;20326;-74
2021/11/18 04:29:13;;;;;;;6.87;4.90;;;;;;;2.29;81.76;100692.50;5051683;28;20777;-73
2021/11/18 04:31:39;;;;;;;7.90;5.83;;;;;;;2.29;82.58;100688.06;5050634;28;20386;-72
2021/11/18 04:34:06;;;;;;;7.20;6.10;;;;;;;2.35;82.35;100681.56;5051827;28;20273;-74
2021/11/18 04:36:34;;;;;;;8.37;6.03;;;;;;;2.29;82.56;100672.31;5052113;28;20266;-68
2021/11/18 04:39:00;;;;;;;9.47;6.47;;;;;;;2.23;82.07;100643.03;5051613;28;20271;-67
2021/11/18 04:41:28;;;;;;;7.80;5.97;;;;;;;2.28;82.38;100659.28;5051388;28;20378;-70
2021/11/18 04:43:55;;;;;;;7.80;5.80;;;;;;;2.06;82.10;100608.31;5051351;28;20048;-69
2021/11/18 04:46:21;;;;;;;8.37;5.60;;;;;;;2.22;82.21;100636.09;5050039;28;20090;-69
2021/11/18 04:48:47;;;;;;;8.33;5.87;;;;;;;2.26;82.71;100638.38;5050626;28;20686;-70
2021/11/18 04:51:15;;;;;;;8.47;6.13;;;;;;;2.06;82.57;100602.22;5051338;28;20519;-69
2021/11/18 04:53:41;;;;;;;7.97;6.10;;;;;;;2.21;82.10;100629.16;5051417;28;20290;-69
2021/11/18 04:56:07;;;;;;;7.67;6.90;;;;;;;2.20;82.41;100624.84;5049697;28;20496;-70
2021/11/18 04:58:34;;;;;;;7.20;6.00;;;;;;;2.27;82.08;100639.22;5050692;28;20033;-72
2021/11/18 05:01:02;;;;;;;12.97;5.60;;;;;;;2.23;82.53;100622.00;5049689;28;20790;-66
2021/11/18 05:03:28;;;;;;;10.00;5.82;;;;;;;2.14;82.26;100600.72;5052676;28;20346;-66
2021/11/18 05:05:54;;;;;;;9.00;6.00;;;;;;;2.26;81.81;100606.00;5054834;28;20466;-68
2021/11/18 05:08:20;;;;;;;9.47;6.50;;;;;;;2.38;81.67;100626.97;5054181;28;20642;-69
2021/11/18 05:10:49;;;;;;;8.40;5.87;;;;;;;2.24;81.76;100600.03;5054962;28;20259;-68
2021/11/18 05:13:15;;;;;;;9.32;5.57;;;;;;;2.28;82.50;100617.25;5054545;28;20075;-68
2021/11/18 05:15:43;;;;;;;8.23;6.17;;;;;;;2.13;82.90;100593.78;5054685;28;20045;-67
2021/11/18 05:18:10;;;;;;;7.20;6.50;;;;;;;2.20;83.11;100606.47;5054839;28;20328;-67
2021/11/18 05:20:38;;;;;;;8.90;6.70;;;;;;;2.22;83.04;100599.31;5054663;28;20102;-67
2021/11/18 05:23:05;;;;;;;13.98;6.70;;;;;;;2.28;82.91;100612.81;5054580;28;20766;-68
2021/11/18 05:25:31;;;;;;;12.37;7.77;;;;;;;2.13;83.91;100592.94;5054038;28;20032;-71
2021/11/18 05:27:59;;;;;;;9.13;6.43;;;;;;;2.08;83.12;100585.41;5036629;28;20374;-69
2021/11/18 05:30:27;;;;;;;9.67;7.40;;;;;;;2.14;83.56;100598.09;5054339;28;20298;-69
2021/11/18 05:32:57;;;;;;;10.45;6.55;;;;;;;2.06;83.48;100603.06;5053208;28;20272;-68
2021/11/18 05:35:26;;;;;;;9.03;6.80;;;;;;;2.04;83.89;100601.50;5054458;28;20048;-68
2021/11/18 05:37:52;;;;;;;;;;;;;;;2.11;83.77;100592.22;5054881;28;20267;-68
2021/11/18 05:40:18;;;;;;;10.27;6.17;;;;;;;2.07;84.04;100573.22;5054139;28;19951;-69
2021/11/18 05:42:46;;;;;;;9.33;6.10;;;;;;;2.13;83.41;100585.91;5054324;28;20072;-70
2021/11/18 05:45:16;;;;;;;10.63;6.82;;;;;;;2.06;83.40;100576.81;5054340;28;20771;-69
2021/11/18 05:47:42;;;;;;;9.90;6.57;;;;;;;2.09;83.56;100581.81;5054045;28;20120;-69
2021/11/18 05:50:09;;;;;;;9.67;7.00;;;;;;;1.99;83.47;100558.94;5054276;28;20341;-66
2021/11/18 05:52:35;;;;;;;8.60;5.97;;;;;;;2.00;82.75;100579.00;5054169;28;20664;-64
2021/11/18 05:55:02;;;;;;;11.43;7.40;;;;;;;1.90;82.93;100552.59;5052682;28;20306;-61
2021/11/18 05:57:28;;;;;;;9.50;5.97;;;;;;;1.91;83.33;100550.81;5053760;28;20040;-62
2021/11/18 05:59:56;;;;;;;11.37;7.03;;;;;;;1.77;83.59;100528.19;5053899;28;20287;-65
2021/11/18 06:02:24;;;;;;;15.82;9.70;;;;;;;1.99;83.61;100562.41;5053758;28;20047;-66
2021/11/18 06:04:50;;;;;;;12.13;7.83;;;;;;;1.96;83.38;100554.75;5053546;28;20500;-68
2021/11/18 06:07:15;;;;;;;14.47;8.17;;;;;;;1.89;82.98;100543.03;5054181;28;20264;-67
2021/11/18 06:09:41;;;;;;;7.73;6.13;;;;;;;1.88;83.15;100533.50;5054190;28;20044;-66
2021/11/18 06:12:09;;;;;;;9.47;6.80;;;;;;;1.86;83.24;100540.66;5051462;28;20045;-70
2021/11/18 06:14:34;;;;;;;13.07;7.33;;;;;;;1.90;83.19;100534.22;5053631;28;20369;-69
2021/11/18 06:17:00;;;;;;;17.73;10.47;;;;;;;1.97;82.75;100530.19;5052248;28;20275;-77
2021/11/18 06:19:26;;;;;;;16.70;9.90;;;;;;;2.01;82.54;100526.38;5053582;28;20048;-70
2021/11/18 06:21:57;;;;;;;7.67;5.50;;;;;;;1.93;82.45;100512.13;5053401;28;20041;-67
2021/11/18 06:24:24;;;;;;;7.50;5.23;;;;;;;1.96;81.80;100510.13;5052205;28;20072;-70
2021/11/18 06:26:52;;;;;;;10.33;6.80;;;;;;;2.03;81.62;100529.75;5053287;28;20812;-68
2021/11/18 06:29:21;;;;;;;6.43;5.37;;;;;;;2.00;81.76;100516.81;5053331;28;20274;-68
2021/11/18 06:31:48;;;;;;;8.35;6.38;;;;;;;1.98;82.13;100510.00;5053268;28;20283;-68
2021/11/18 06:34:14;;;;;;;8.87;6.30;;;;;;;2.08;82.37;100518.91;5053140;28;20050;-66
2021/11/18 06:36:40;;;;;;;6.97;5.27;;;;;;;2.03;81.60;100508.72;5053304;28;20373;-68
2021/11/18 06:39:05;;;;;;;6.50;5.40;;;;;;;1.93;81.94;100496.38;5053176;28;20362;-68
2021/11/18 06:41:32;;;;;;;8.77;5.37;;;;;;;1.92;82.19;100508.69;5052934;28;20159;-63
2021/11/18 06:43:58;;;;;;;8.00;6.00;;;;;;;1.74;83.07;100502.16;5051778;28;20516;-71
2021/11/18 06:46:26;;;;;;;6.73;5.30;;;;;;;1.72;83.30;100504.03;5053127;28;20306;-70
2021/11/18 06:48:53;;;;;;;6.57;5.00;;;;;;;1.79;83.30;100505.28;5051498;28;20275;-68
2021/11/18 06:51:22;;;;;;;7.60;6.20;;;;;;;1.67;83.31;100485.16;5052835;28;20272;-69
2021/11/18 06:53:50;;;;;;;10.25;6.68;;;;;;;1.39;83.11;100433.84;5052162;28;20275;-69
2021/11/18 06:56:17;;;;;;;9.15;5.65;;;;;;;1.70;83.13;100469.19;5052604;28;20120;-69
2021/11/18 06:58:42;;;;;;;9.97;5.23;;;;;;;1.73;83.04;100475.03;5052944;28;20037;-71
2021/11/18 07:01:11;;;;;;;7.40;5.63;;;;;;;1.67;82.78;100466.78;5052474;28;20892;-74
2021/11/18 07:03:39;;;;;;;13.57;9.52;;;;;;;1.72;82.88;100459.41;5052875;28;20045;-72
2021/11/18 07:06:09;;;;;;;;;;;;;;;1.76;82.73;100474.00;5051996;28;20045;-72
2021/11/18 07:08:35;;;;;;;8.40;5.20;;;;;;;1.69;83.06;100462.25;5035019;28;20524;-64
2021/11/18 07:11:03;;;;;;;6.33;4.90;;;;;;;1.58;82.78;100456.97;5051598;28;20267;-66
2021/11/18 07:13:32;;;;;;;11.50;6.73;;;;;;;1.53;83.58;100452.91;5052442;28;20052;-70
2021/11/18 07:16:01;;;;;;;9.63;6.67;;;;;;;1.54;83.53;100438.84;5034685;28;20312;-70
2021/11/18 07:18:27;;;;;;;7.45;5.88;;;;;;;1.49;83.76;100424.38;5050664;28;20275;-71
2021/11/18 07:20:53;;;;;;;9.07;5.27;;;;;;;1.61;83.13;100435.75;5050618;28;20442;-71
2021/11/18 07:23:22;;;;;;;7.43;5.80;;;;;;;1.66;83.23;100452.84;5052478;28;20264;-71
2021/11/18 07:25:51;;;;;;;7.68;4.78;;;;;;;1.54;83.31;100417.84;5051795;28;20037;-70
2021/11/18 07:28:16;;;;;;;10.13;6.03;;;;;;;1.67;83.32;100445.78;5051819;28;20060;-69
2021/11/18 07:30:43;;;;;;;7.57;6.30;;;;;;;1.68;83.13;100431.72;5052271;28;20080;-69
2021/11/18 07:33:10;;;;;;;8.53;6.73;;;;;;;1.74;83.18;100431.28;5052119;28;20037;-66
2021/11/18 07:35:36;;;;;;;10.70;6.67;;;;;;;1.66;82.85;100405.59;5052165;28;20310;-71
2021/11/18 07:38:02;;;;;;;11.67;7.13;;;;;;;1.68;83.00;100406.31;5052186;28;20358;-66
2021/11/18 07:40:29;;;;;;;12.10;7.07;;;;;;;1.66;82.69;100402.13;5051063;28;20041;-73
2021/11/18 07:42:56;;;;;;;7.63;6.43;;;;;;;1.70;83.73;100406.19;5051753;28;20283;-67
2021/11/18 07:45:25;;;;;;;10.83;7.50;;;;;;;1.52;83.11;100377.75;5050544;28;20283;-68
2021/11/18 07:47:51;;;;;;;11.10;6.88;;;;;;;1.69;83.40;100412.38;5052136;28;20833;-68
2021/11/18 07:50:18;;;;;;;12.77;9.87;;;;;;;1.62;83.95;100409.38;5048997;28;20076;-67
2021/11/18 07:52:46;;;;;;;15.17;8.43;;;;;;;1.54;84.50;100396.00;5050282;28;20359;-68
2021/11/18 07:55:22;;;;;;;12.85;8.63;;;;;;;1.48;83.70;100378.09;5033445;28;20259;-71
2021/11/18 07:57:48;;;;;;;12.77;8.23;;;;;;;1.59;83.89;100393.03;5051700;28;20120;-72
2021/11/18 08:00:16;;;;;;;13.87;8.63;;;;;;;1.52;83.83;100382.16;5049859;28;20331;-71
2021/11/18 08:02:43;;;;;;;10.25;7.57;;;;;;;1.46;84.12;100386.09;5049787;28;20286;-73
2021/11/18 08:05:11;;;;;;;13.43;9.47;;;;;;;1.43;84.24;100383.66;5050780;28;20094;-69
2021/11/18 08:08:11;;;;;;;18.80;10.13;;;;;;;1.59;84.66;100399.13;5050887;28;20268;-68
2021/11/18 08:10:37;;;;;;;15.50;9.00;;;;;;;1.63;84.46;100391.84;5050246;28;20279;-70
2021/11/18 08:13:03;;;;;;;12.80;9.03;;;;;;;1.59;84.09;100393.03;5053006;28;20271;-70
2021/11/18 08:15:29;;;;;;;16.90;11.03;;;;;;;1.38;84.41;100354.31;5052397;28;20563;-68
2021/11/18 08:17:55;;;;;;;13.37;9.73;;;;;;;1.63;84.67;100389.22;5052022;28;20271;-69
2021/11/18 08:20:22;;;;;;;15.47;9.53;;;;;;;1.66;83.85;100384.59;5050348;28;20643;-74
2021/11/18 08:22:49;;;;;;;16.63;12.13;;;;;;;1.65;84.03;100371.56;5051867;28;20080;-73
2021/11/18 08:25:16;;;;;;;17.77;10.33;;;;;;;1.61;84.02;100360.47;5051368;28;20264;-65
2021/11/18 08:27:42;;;;;;;16.73;10.20;;;;;;;1.49;84.40;100345.66;5051332;28;20659;-68
2021/11/18 08:30:11;;;;;;;12.80;8.77;;;;;;;1.62;84.17;100359.50;5051665;28;20283;-70
2021/11/18 08:32:39;;;;;;;18.73;11.52;;;;;;;1.67;84.33;100340.78;5050123;28;20298;-70
2021/11/18 08:35:06;;;;;;;14.45;8.75;;;;;;;1.76;83.33;100346.19;5052019;28;20504;-66
2021/11/18 08:37:31;;;;;;;12.57;8.87;;;;;;;1.79;83.63;100343.34;5053004;28;20036;-67
2021/11/18 08:39:57;;;;;;;11.13;7.47;;;;;;;1.85;83.05;100347.28;5055204;28;20351;-67
2021/11/18 08:42:24;;;;;;;15.17;8.00;;;;;;;1.80;82.37;100347.63;5054408;28;20416;-69
2021/11/18 08:44:50;;;;;;;11.00;7.77;;;;;;;1.62;83.09;100332.44;5055403;28;20036;-72
2021/11/18 08:47:16;;;;;;;13.73;9.77;;;;;;;1.57;83.53;100330.16;5037649;28;20359;-71
2021/11/18 08:49:43;;;;;;;12.37;8.73;;;;;;;1.50;83.73;100315.84;5053845;28;20286;-68
2021/11/18 08:52:12;;;;;;;14.17;8.47;;;;;;;1.53;83.41;100313.81;5055092;28;20835;-69
2021/11/18 08:54:41;;;;;;;13.43;8.57;;;;;;;1.53;84.35;100300.69;5055093;28;20260;-66
2021/11/18 08:57:08;;;;;;;15.40;10.17;;;;;;;1.50;83.94;100311.44;5054783;28;20513;-69
2021/11/18 08:59:38;;;;;;;16.20;9.93;;;;;;;1.47;84.01;100301.16;5054457;28;20348;-68
2021/11/18 09:02:09;;;;;;;14.23;9.67;;;;;;;1.52;84.23;100301.66;5055432;28;20402;-71
2021/11/18 09:04:34;;;;;;;13.30;7.50;;;;;;;1.46;83.96;100285.53;5054912;28;20275;-73
2021/11/18 09:07:00;;;;;;;10.77;6.87;;;;;;;1.51;83.95;100270.28;5055434;28;20288;-72
2021/11/18 09:09:27;;;;;;;13.47;8.53;;;;;;;1.54;83.92;100270.88;5056156;28;20045;-73
2021/11/18 09:11:56;;;;;;;9.47;7.17;;;;;;;1.58;83.33;100258.34;5054123;28;20041;-69
2021/11/18 09:14:23;;;;;;;12.23;7.80;;;;;;;1.68;83.85;100276.84;5037941;28;20302;-71
2021/11/18 09:16:51;;;;;;;14.40;8.73;;;;;;;1.60;83.53;100252.97;5036845;28;20037;-70
2021/11/18 09:19:34;;;;;;;10.50;7.07;;;;;;;1.55;83.63;100253.34;5054412;28;20331;-66
2021/11/18 09:22:09;;;;;;;9.57;7.53;;;;;;;1.47;83.47;100222.44;5052515;28;20298;-69
2021/11/18 09:24:49;;;;;;;11.43;8.63;;;;;;;1.58;83.25;100241.75;5053757;28;20272;-73
2021/11/18 09:27:37;;;;;;;15.27;9.07;;;;;;;1.39;83.35;100219.53;5053928;28;20367;-78
2021/11/18 09:30:06;;;;;;;12.98;8.45;;;;;;;1.24;83.64;100202.38;5053260;28;20310;-70
2021/11/18 09:32:32;;;;;;;9.02;6.63;;;;;;;1.32;83.66;100223.59;5053179;28;20048;-66
2021/11/18 09:34:59;;;;;;;12.37;6.13;;;;;;;1.39;83.85;100230.03;5054483;28;20573;-69
2021/11/18 09:37:25;;;;;;;9.80;7.67;;;;;;;1.39;83.83;100218.72;5054203;28;20056;-67
2021/11/18 09:39:52;;;;;;;8.33;6.50;;;;;;;1.41;83.82;100217.63;5054425;28;20260;-71
2021/11/18 09:42:22;;;;;;;10.23;6.83;;;;;;;1.41;84.23;100208.94;5054067;28;20378;-69
2021/11/18 09:45:14;;;;;;;9.87;7.20;;;;;;;1.35;83.44;100198.91;5053890;28;20324;-72
2021/11/18 09:48:12;;;;;;;10.03;6.47;;;;;;;1.43;84.17;100215.72;5053206;28;20358;-70
2021/11/18 09:50:42;;;;;;;11.45;6.20;;;;;;;1.44;83.32;100206.91;5053520;28;20267;-72
2021/11/18 09:53:47;;;;;;;11.60;7.17;;;;;;;1.48;83.72;100203.13;5054745;28;20041;-77
2021/11/18 09:56:36;;;;;;;9.03;7.57;;;;;;;1.49;83.83;100199.53;5054120;28;20332;-73
2021/11/18 09:59:10;;;;;;;10.90;7.13;;;;;;;1.37;84.02;100189.97;5036011;28;20329;-69
2021/11/18 10:01:50;;;;;;;12.13;7.17;;;;;;;1.42;84.42;100186.97;5051977;28;20295;-71
2021/11/18 10:04:40;;;;;;;12.87;7.57;;;;;;;1.40;84.08;100179.22;5054105;28;20284;-75
2021/11/18 10:07:17;;;;;;;11.80;7.50;;;;;;;1.40;84.36;100173.97;5052186;28;20414;-65
2021/11/18 10:10:20;;;;;;;10.37;6.97;;;;;;;1.40;84.48;100173.97;5052384;28;20718;-68
2021/11/18 10:12:58;;;;;;;8.97;7.20;;;;;;;1.37;84.10;100147.97;5053737;28;20309;-65
2021/11/18 10:15:37;;;;;;;11.65;8.82;;;;;;;1.35;84.01;100130.69;5053513;28;20264;-68
2021/11/18 10:18:15;;;;;;;;;;;;;;;1.50;84.13;100148.72;5054178;28;20037;-70
2021/11/18 10:20:55;;;;;;;10.40;6.87;;;;;;;1.45;84.14;100147.41;5052320;28;19916;-67
2021/11/18 10:23:24;;;;;;;12.30;8.80;;;;;;;1.50;84.40;100142.63;5054787;28;20264;-72
2021/11/18 10:25:55;;;;;;;11.80;7.47;;;;;;;1.50;83.78;100132.13;5054465;28;20275;-69
2021/11/18 10:28:23;;;;;;;10.10;6.67;;;;;;;1.56;84.00;100144.78;5052076;28;20358;-73
2021/11/18 10:31:14;;;;;;;8.85;6.65;;;;;;;1.53;84.03;100121.41;5053029;28;20338;-78
2021/11/18 10:33:40;;;;;;;8.37;6.07;;;;;;;1.60;84.24;100121.75;5052328;28;20033;-77
2021/11/18 10:36:11;;;;;;;15.43;8.10;;;;;;;1.45;83.78;100094.94;5052045;28;20259;-74
2021/11/18 10:38:41;;;;;;;19.17;9.23;;;;;;;1.54;83.73;100104.69;5052794;28;20044;-73
2021/11/18 10:41:23;;;;;;;13.80;9.93;;;;;;;1.56;84.11;100100.16;5052015;28;20291;-73
2021/11/18 10:44:14;;;;;;;10.00;7.00;;;;;;;1.64;83.62;100104.78;5053500;28;20382;-68
2021/11/18 10:47:17;;;;;;;10.20;6.90;;;;;;;1.63;83.64;100109.22;5042188;28;20282;-66
2021/11/18 10:49:54;;;;;;;12.13;8.37;;;;;;;1.66;83.32;100097.63;5051823;28;20283;-67
2021/11/18 10:52:45;;;;;;;13.97;7.83;;;;;;;1.71;83.67;100098.94;5053149;28;20264;-67
2021/11/18 10:55:17;;;;;;;9.17;7.10;;;;;;;1.62;83.15;100077.84;5051416;28;20319;-66
2021/11/18 10:58:09;;;;;;;7.90;5.83;;;;;;;1.62;83.63;100089.16;5052897;28;20260;-67
2021/11/18 11:00:43;;;;;;;6.63;5.77;;;;;;;1.60;83.49;100079.75;5050920;28;20318;-66
2021/11/18 11:03:34;;;;;;;9.90;7.30;;;;;;;1.58;84.08;100050.19;5051008;28;20705;-66
2021/11/18 11:06:22;;;;;;;10.40;7.43;;;;;;;1.71;83.83;100066.59;5052152;28;20335;-65
2021/11/18 11:08:49;;;;;;;11.82;7.45;;;;;;;1.63;83.83;100042.75;5052338;28;20353;-66
2021/11/18 11:11:37;;;;;;;11.00;6.90;;;;;;;1.70;83.95;100059.69;5050325;28;20055;-69
2021/11/18 11:14:33;;;;;;;17.47;10.67;;;;;;;1.71;83.73;100035.09;5051592;28;20283;-66
2021/11/18 11:17:11;;;;;;;9.63;6.03;;;;;;;1.69;83.82;100037.84;5052468;28;20321;-67
2021/11/18 11:19:53;;;;;;;9.00;6.72;;;;;;;1.66;84.15;100016.25;5052670;28;20263;-65
2021/11/18 11:22:36;;;;;;;18.87;8.40;;;;;;;1.74;83.60;100019.13;5052395;28;20127;-69
2021/11/18 11:25:14;;;;;;;10.47;7.53;;;;;;;1.69;84.11;100005.50;5052350;28;20271;-67
2021/11/18 11:27:57;;;;;;;14.67;8.73;;;;;;;1.73;84.31;100001.69;5052453;28;20263;-68
2021/11/18 11:30:41;;;;;;;11.10;6.60;;;;;;;1.77;84.10;100003.13;5052407;28;20350;-66
2021/11/18 11:33:16;;;;;;;10.60;6.87;;;;;;;1.78;83.30;99996.91;5052482;28;20275;-65
2021/11/18 11:35:48;;;;;;;9.90;6.67;;;;;;;1.74;83.63;99998.13;5052524;28;20274;-67
2021/11/18 11:38:51;;;;;;;17.30;9.37;;;;;;;1.72;83.68;99989.50;5051947;28;20809;-68
2021/11/18 11:41:38;;;;;;;10.23;7.10;;;;;;;1.68;84.24;99990.72;5049845;28;20291;-65
2021/11/18 11:44:10;;;;;;;10.50;6.30;;;;;;;1.78;84.24;99974.13;5051851;28;20698;-62